Observations for VALLEY RAF, United Kingdom (EGOV)

EGOV 240850Z 20006KT 9999 FEW015 BKN026 18/16 Q1015 NOSIG RMK BLU BLU   
EGOV 240750Z 18004KT 9999 SCT047 BKN250 19/17 Q1014 NOSIG RMK BLU BLU   
EGOV 240650Z 05005KT CAVOK 17/16 Q1014 NOSIG RMK BLU BLU
EGOV 240550Z 05005KT 8000 HZ FEW035 BKN050 16/15 Q1013 NOSIG RMK BLU BLU
EGOV 240450Z AUTO 06007KT 5000 BR BKN050/// 15/14 Q1013 
EGOV 240350Z AUTO 06008KT 6000 BR FEW060/// BKN080/// 15/14 Q1013   
EGOV 240250Z AUTO 05008KT 6000 BR FEW100/// 15/14 Q1013 
EGOV 240150Z AUTO 06010KT 7000 BR FEW034/// BKN090/// 15/14 Q1014   
EGOV 240050Z AUTO 05010KT 8000 BR FEW034/// BKN080/// 15/14 Q1014 RERA  
EGOV 232350Z AUTO 05011KT 9000 -RA BKN025/// SCT060/// 15/14 Q1014  
EGOV 232250Z AUTO 07016KT 6000 -RA SCT032/// BKN046/// 15/14 Q1015  
EGOV 232150Z AUTO 07020KT 3000 RA SCT037/// BKN046/// 15/14 Q1014   
EGOV 232050Z AUTO 07018KT 7000 HZ BKN041/// 16/15 Q1014 RERA
EGOV 231950Z AUTO 05012KT 3500 RA BKN041/// BKN070/// 16/15 Q1015   
EGOV 231850Z AUTO 05007KT 8000 RA OVC070/// 16/15 Q1015 
EGOV 231750Z AUTO 07007KT 9999 -RA OVC070/// 17/15 Q1015
EGOV 231650Z AUTO 06007KT 9999 -RA BKN070/// 17/16 Q1015
EGOV 231550Z AUTO 10011KT 9000 RA BKN050/// 18/15 Q1016 
EGOV 231450Z AUTO 06009KT 9999 BKN070/// 20/14 Q1015
EGOV 231350Z AUTO 05011KT 9999 SCT060/// 20/13 Q1016
EGOV 231250Z AUTO 05011KT 9999 FEW120/// 20/12 Q1015
EGOV 231150Z AUTO 06010KT 9999 FEW120/// 20/11 Q1016
EGOV 231050Z AUTO 06009KT 9999 BKN120/// 20/10 Q1016
EGOV 230950Z AUTO 10010KT 9999 FEW110/// 21/07 Q1016
EGOV 230850Z AUTO 09009KT 9999 NCD 20/07 Q1016